createdAt,value
2022-08-27T00:01:36.404Z,26.43
2022-08-27T00:06:43.090Z,26.43
2022-08-27T00:11:53.131Z,26.43
2022-08-27T00:16:59.980Z,26.43
2022-08-27T00:22:07.429Z,26.43
2022-08-27T00:27:14.130Z,26.44
2022-08-27T00:32:20.972Z,26.43
2022-08-27T00:37:27.720Z,26.43
2022-08-27T00:42:34.430Z,26.42
2022-08-27T00:47:43.020Z,26.41
2022-08-27T00:52:53.230Z,26.44
2022-08-27T00:58:03.734Z,26.42
2022-08-27T01:03:12.475Z,26.43
2022-08-27T01:08:20.251Z,26.40
2022-08-27T01:13:58.948Z,26.42
2022-08-27T01:18:58.020Z,26.42
2022-08-27T01:24:06.820Z,26.41
2022-08-27T01:29:14.643Z,26.40
2022-08-27T01:34:21.189Z,26.38
2022-08-27T01:39:28.230Z,26.40
2022-08-27T01:44:44.871Z,26.39
2022-08-27T01:49:52.392Z,26.41
2022-08-27T01:54:59.410Z,26.40
2022-08-27T02:00:07.071Z,26.39
2022-08-27T02:05:14.203Z,26.40
2022-08-27T02:10:23.123Z,26.40
2022-08-27T02:15:30.167Z,26.39
2022-08-27T02:20:37.653Z,26.38
2022-08-27T02:25:47.030Z,26.37
2022-08-27T02:30:53.933Z,26.38
2022-08-27T02:36:00.984Z,26.40
2022-08-27T02:41:09.258Z,26.38
2022-08-27T02:46:15.866Z,26.37
2022-08-27T02:51:22.522Z,26.37
2022-08-27T02:56:30.162Z,26.35
2022-08-27T03:01:36.991Z,26.36
2022-08-27T03:06:44.125Z,26.36
2022-08-27T03:11:51.011Z,26.37
2022-08-27T03:17:17.830Z,26.34
2022-08-27T03:22:24.474Z,26.37
2022-08-27T03:27:31.118Z,26.36
2022-08-27T03:32:38.513Z,26.34
2022-08-27T03:37:45.514Z,26.38
2022-08-27T03:42:52.047Z,26.32
2022-08-27T03:47:58.790Z,26.33
2022-08-27T03:53:05.570Z,26.33
2022-08-27T03:58:12.611Z,26.34
2022-08-27T04:03:19.240Z,26.33
2022-08-27T04:08:26.980Z,26.34
2022-08-27T04:13:33.470Z,26.36
2022-08-27T04:18:39.980Z,26.33
2022-08-27T04:23:46.784Z,26.32
2022-08-27T04:28:53.385Z,26.32
2022-08-27T04:34:00.074Z,26.33
2022-08-27T04:39:06.970Z,26.32
2022-08-27T04:44:13.744Z,26.33
2022-08-27T04:49:20.530Z,26.36
2022-08-27T04:54:32.765Z,26.33
2022-08-27T04:59:40.304Z,26.35
2022-08-27T05:04:47.554Z,26.35
2022-08-27T05:09:54.631Z,26.37
2022-08-27T05:15:01.371Z,26.40
2022-08-27T05:20:09.992Z,26.44
2022-08-27T05:25:16.895Z,26.47
2022-08-27T05:30:23.890Z,26.48
2022-08-27T05:35:31.680Z,26.51
2022-08-27T05:40:38.970Z,26.55
2022-08-27T05:45:47.438Z,26.57
2022-08-27T05:50:54.046Z,26.61
2022-08-27T05:56:01.350Z,26.63
2022-08-27T06:01:10.508Z,26.66
2022-08-27T06:06:17.470Z,26.67
2022-08-27T06:11:24.474Z,26.70
2022-08-27T06:16:31.331Z,26.73
2022-08-27T06:21:37.938Z,26.75
2022-08-27T06:26:45.623Z,26.77
2022-08-27T06:31:53.101Z,26.79
2022-08-27T06:37:00.190Z,26.82
2022-08-27T06:42:07.206Z,26.84
2022-08-27T06:47:14.490Z,26.87
2022-08-27T06:52:21.090Z,26.88
2022-08-27T06:57:27.871Z,26.90
2022-08-27T07:02:34.494Z,26.93
2022-08-27T07:07:46.761Z,26.97
2022-08-27T07:12:55.610Z,27.00
2022-08-27T07:18:02.670Z,27.04
2022-08-27T07:23:11.830Z,27.06
2022-08-27T07:28:18.732Z,27.07
2022-08-27T07:33:25.911Z,27.10
2022-08-27T07:38:32.411Z,27.13
2022-08-27T07:43:56.604Z,27.14
2022-08-27T07:49:03.350Z,27.19
2022-08-27T07:54:09.937Z,27.19
2022-08-27T07:59:16.652Z,27.22
2022-08-27T08:04:23.881Z,27.25
2022-08-27T08:09:32.591Z,27.26
2022-08-27T08:14:39.370Z,27.27
2022-08-27T08:20:02.497Z,27.29
2022-08-27T08:25:14.452Z,27.31
2022-08-27T08:30:21.392Z,27.30
2022-08-27T08:35:35.107Z,27.30
2022-08-27T08:40:50.449Z,27.28
2022-08-27T08:46:00.272Z,27.24
2022-08-27T08:51:10.652Z,27.20
2022-08-27T08:56:23.550Z,27.17
2022-08-27T09:01:30.542Z,27.18
2022-08-27T09:06:42.713Z,27.21
2022-08-27T09:11:52.811Z,27.26
2022-08-27T09:17:00.945Z,27.28
2022-08-27T09:22:15.031Z,27.30
2022-08-27T09:27:22.598Z,27.33
2022-08-27T09:32:31.630Z,27.33
2022-08-27T09:37:43.638Z,27.33
2022-08-27T09:42:53.583Z,27.38
2022-08-27T09:48:07.804Z,27.36
2022-08-27T09:53:21.563Z,27.37
2022-08-27T09:58:29.154Z,27.38
2022-08-27T10:03:36.206Z,27.38
2022-08-27T10:08:44.550Z,27.39
2022-08-27T10:13:54.649Z,27.42
2022-08-27T10:19:05.591Z,27.38
2022-08-27T10:24:17.649Z,27.37
2022-08-27T10:29:27.844Z,27.35
2022-08-27T10:34:43.404Z,27.37
2022-08-27T10:39:57.560Z,27.34
2022-08-27T10:45:12.353Z,27.38
2022-08-27T10:50:23.320Z,27.31
2022-08-27T10:55:33.850Z,27.32
2022-08-27T11:00:44.831Z,27.31
2022-08-27T11:05:51.709Z,27.29
2022-08-27T11:11:08.584Z,27.29
2022-08-27T11:16:28.034Z,27.29
2022-08-27T11:21:38.021Z,27.27
2022-08-27T11:26:45.069Z,27.24
2022-08-27T11:31:56.004Z,27.26
2022-08-27T11:37:13.299Z,27.25
2022-08-27T11:42:27.853Z,27.26
2022-08-27T11:47:34.450Z,27.25
2022-08-27T11:52:58.913Z,27.23
2022-08-27T11:58:07.427Z,27.23
2022-08-27T12:03:26.639Z,27.26
2022-08-27T12:08:34.973Z,27.22
2022-08-27T12:13:44.764Z,27.23
2022-08-27T12:19:05.379Z,27.21
2022-08-27T12:24:27.190Z,27.23
2022-08-27T12:29:43.827Z,27.23
2022-08-27T12:34:59.061Z,27.22
2022-08-27T12:40:13.626Z,27.22
2022-08-27T12:45:25.923Z,27.22
2022-08-27T12:50:33.119Z,27.20
2022-08-27T12:55:48.431Z,27.18
2022-08-27T13:01:10.178Z,27.18
2022-08-27T13:06:21.569Z,27.19
2022-08-27T13:11:29.143Z,27.19
2022-08-27T13:16:39.575Z,27.17
2022-08-27T13:21:49.414Z,27.17
2022-08-27T13:26:57.721Z,27.18
2022-08-27T13:32:05.257Z,27.19
2022-08-27T13:37:25.650Z,27.19
2022-08-27T13:42:32.844Z,27.19
2022-08-27T13:47:45.671Z,27.21
2022-08-27T13:53:12.128Z,27.19
2022-08-27T13:58:22.630Z,27.19
2022-08-27T14:03:32.423Z,27.18
2022-08-27T14:08:39.300Z,27.21
2022-08-27T14:13:47.628Z,27.19
2022-08-27T14:18:59.131Z,27.18
2022-08-27T14:24:07.118Z,27.17
2022-08-27T14:29:13.720Z,27.18
2022-08-27T14:34:20.231Z,27.18
2022-08-27T14:39:27.229Z,27.21
2022-08-27T14:44:34.021Z,27.20
2022-08-27T14:49:42.600Z,27.19
2022-08-27T14:54:49.580Z,27.18
2022-08-27T14:59:56.444Z,27.17
2022-08-27T15:05:11.821Z,27.20
2022-08-27T15:10:19.618Z,27.21
2022-08-27T15:15:26.337Z,27.20
2022-08-27T15:20:33.350Z,27.23
2022-08-27T15:25:40.399Z,27.17
2022-08-27T15:30:47.127Z,27.19
2022-08-27T15:35:54.011Z,27.17
2022-08-27T15:41:00.690Z,27.18
2022-08-27T15:46:08.300Z,27.19
2022-08-27T15:51:15.584Z,27.18
2022-08-27T15:56:22.290Z,27.19
2022-08-27T16:01:30.257Z,27.19
2022-08-27T16:06:37.020Z,27.18
2022-08-27T16:11:45.750Z,27.19
2022-08-27T16:16:52.531Z,27.18
2022-08-27T16:21:59.424Z,27.21
2022-08-27T16:27:06.474Z,27.18
2022-08-27T16:32:16.480Z,27.19
2022-08-27T16:37:23.155Z,27.20
2022-08-27T16:42:30.004Z,27.20
2022-08-27T16:47:56.820Z,27.21
2022-08-27T16:53:04.202Z,27.20
2022-08-27T16:58:12.909Z,27.19
2022-08-27T17:03:20.553Z,27.19
2022-08-27T17:08:30.151Z,27.16
2022-08-27T17:13:37.352Z,27.17
2022-08-27T17:18:44.830Z,27.17
2022-08-27T17:23:53.029Z,27.17
2022-08-27T17:29:00.103Z,27.16
2022-08-27T17:34:07.735Z,27.17
2022-08-27T17:39:14.361Z,27.18
2022-08-27T17:44:24.011Z,27.16
2022-08-27T17:49:31.879Z,27.17
2022-08-27T17:54:39.594Z,27.16
2022-08-27T17:59:46.458Z,27.19
2022-08-27T18:04:53.078Z,27.19
2022-08-27T18:09:59.664Z,27.16
2022-08-27T18:15:08.224Z,27.16
2022-08-27T18:20:15.426Z,27.16
2022-08-27T18:25:25.015Z,27.17
2022-08-27T18:30:31.952Z,27.17
2022-08-27T18:35:39.748Z,27.16
2022-08-27T18:40:49.151Z,27.17
2022-08-27T18:45:56.265Z,27.16
2022-08-27T18:51:04.948Z,27.17
2022-08-27T18:56:11.909Z,27.18
2022-08-27T19:01:27.253Z,27.16
2022-08-27T19:06:34.273Z,27.18
2022-08-27T19:11:40.994Z,27.15
2022-08-27T19:16:50.725Z,27.20
2022-08-27T19:21:58.620Z,27.17
2022-08-27T19:27:13.743Z,27.16
2022-08-27T19:32:20.695Z,27.17
2022-08-27T19:37:29.424Z,27.16
2022-08-27T19:42:36.351Z,27.15
2022-08-27T19:47:43.230Z,27.17
2022-08-27T19:52:49.942Z,27.16
2022-08-27T19:57:56.581Z,27.15
2022-08-27T20:03:03.489Z,27.16
2022-08-27T20:08:10.285Z,27.16
2022-08-27T20:13:19.860Z,27.15
2022-08-27T20:18:26.950Z,27.18
2022-08-27T20:23:33.639Z,27.14
2022-08-27T20:28:41.190Z,27.15
2022-08-27T20:33:48.390Z,27.15
2022-08-27T20:38:55.211Z,27.15
2022-08-27T20:44:01.774Z,27.14
2022-08-27T20:49:09.158Z,27.13
2022-08-27T20:54:15.812Z,27.16
2022-08-27T20:59:40.099Z,27.17
2022-08-27T21:04:47.569Z,27.16
2022-08-27T21:09:56.878Z,27.17
2022-08-27T21:15:05.699Z,27.16
2022-08-27T21:20:13.611Z,27.13
2022-08-27T21:25:20.281Z,27.15
2022-08-27T21:30:27.191Z,27.14
2022-08-27T21:35:34.433Z,27.14
2022-08-27T21:40:41.140Z,27.14
2022-08-27T21:45:48.032Z,27.13
2022-08-27T21:50:55.169Z,27.13
2022-08-27T21:56:02.030Z,27.13
2022-08-27T22:01:09.441Z,27.14
2022-08-27T22:06:16.149Z,27.13
2022-08-27T22:11:24.228Z,27.13
2022-08-27T22:16:32.081Z,27.13
2022-08-27T22:21:39.433Z,27.13
2022-08-27T22:26:46.349Z,27.12
2022-08-27T22:31:53.173Z,27.12
2022-08-27T22:36:59.839Z,27.12
2022-08-27T22:42:06.890Z,27.11
2022-08-27T22:47:15.540Z,27.12
2022-08-27T22:52:23.224Z,27.10
2022-08-27T22:57:36.019Z,27.12
2022-08-27T23:02:43.030Z,27.11
2022-08-27T23:07:50.021Z,27.11
2022-08-27T23:12:57.763Z,27.12
2022-08-27T23:18:04.917Z,27.10
2022-08-27T23:23:11.631Z,27.11
2022-08-27T23:28:18.774Z,27.09
2022-08-27T23:33:25.597Z,27.08
2022-08-27T23:38:32.600Z,27.09
2022-08-27T23:43:39.389Z,27.09
2022-08-27T23:48:46.120Z,27.10
2022-08-27T23:53:52.794Z,27.08
2022-08-27T23:59:00.309Z,27.08
